sensor_id;sensor_type;location;lat;lon;timestamp;P1;durP1;ratioP1;P2;durP2;ratioP2
80117;SDS011;69424;48.770;-1.564;2023-04-24T00:00:56;6.40;;;1.10;;
80117;SDS011;69424;48.770;-1.564;2023-04-24T00:03:25;7.10;;;0.90;;
80117;SDS011;69424;48.770;-1.564;2023-04-24T00:05:54;4.30;;;1.10;;
80117;SDS011;69424;48.770;-1.564;2023-04-24T00:08:22;5.70;;;1.10;;
80117;SDS011;69424;48.770;-1.564;2023-04-24T00:10:51;8.60;;;1.90;;
80117;SDS011;69424;48.770;-1.564;2023-04-24T00:13:20;8.00;;;1.90;;
80117;SDS011;69424;48.770;-1.564;2023-04-24T00:15:48;5.60;;;1.70;;
80117;SDS011;69424;48.770;-1.564;2023-04-24T00:18:17;9.30;;;2.40;;
80117;SDS011;69424;48.770;-1.564;2023-04-24T00:20:45;6.20;;;1.70;;
80117;SDS011;69424;48.770;-1.564;2023-04-24T00:23:14;8.60;;;1.40;;
80117;SDS011;69424;48.770;-1.564;2023-04-24T00:25:42;7.50;;;1.50;;
80117;SDS011;69424;48.770;-1.564;2023-04-24T00:28:10;6.80;;;1.50;;
80117;SDS011;69424;48.770;-1.564;2023-04-24T00:30:38;5.50;;;2.30;;
80117;SDS011;69424;48.770;-1.564;2023-04-24T00:33:06;9.10;;;1.80;;
80117;SDS011;69424;48.770;-1.564;2023-04-24T00:35:34;16.10;;;2.60;;
80117;SDS011;69424;48.770;-1.564;2023-04-24T00:38:02;4.90;;;2.20;;
80117;SDS011;69424;48.770;-1.564;2023-04-24T00:40:30;9.00;;;2.60;;
80117;SDS011;69424;48.770;-1.564;2023-04-24T00:42:58;6.70;;;1.90;;
80117;SDS011;69424;48.770;-1.564;2023-04-24T00:45:26;13.90;;;2.30;;
80117;SDS011;69424;48.770;-1.564;2023-04-24T00:47:55;4.40;;;1.70;;
80117;SDS011;69424;48.770;-1.564;2023-04-24T00:50:24;5.50;;;1.90;;
80117;SDS011;69424;48.770;-1.564;2023-04-24T00:52:53;5.40;;;1.70;;
80117;SDS011;69424;48.770;-1.564;2023-04-24T00:55:21;5.40;;;1.90;;
80117;SDS011;69424;48.770;-1.564;2023-04-24T00:57:49;8.10;;;2.80;;
80117;SDS011;69424;48.770;-1.564;2023-04-24T01:00:18;8.50;;;3.20;;
80117;SDS011;69424;48.770;-1.564;2023-04-24T01:02:46;15.10;;;2.60;;
80117;SDS011;69424;48.770;-1.564;2023-04-24T01:05:15;7.60;;;2.60;;
80117;SDS011;69424;48.770;-1.564;2023-04-24T01:07:45;9.30;;;2.70;;
80117;SDS011;69424;48.770;-1.564;2023-04-24T01:10:16;9.70;;;2.60;;
80117;SDS011;69424;48.770;-1.564;2023-04-24T01:12:46;14.50;;;3.20;;
80117;SDS011;69424;48.770;-1.564;2023-04-24T01:15:14;9.50;;;2.70;;
80117;SDS011;69424;48.770;-1.564;2023-04-24T01:17:43;8.20;;;3.00;;
80117;SDS011;69424;48.770;-1.564;2023-04-24T01:20:11;7.40;;;3.00;;
80117;SDS011;69424;48.770;-1.564;2023-04-24T01:22:41;12.10;;;3.20;;
80117;SDS011;69424;48.770;-1.564;2023-04-24T01:25:09;9.60;;;3.50;;
80117;SDS011;69424;48.770;-1.564;2023-04-24T01:27:37;7.70;;;3.20;;
80117;SDS011;69424;48.770;-1.564;2023-04-24T01:30:06;9.50;;;2.50;;
80117;SDS011;69424;48.770;-1.564;2023-04-24T01:32:35;6.10;;;2.30;;
80117;SDS011;69424;48.770;-1.564;2023-04-24T01:35:05;16.30;;;3.00;;
80117;SDS011;69424;48.770;-1.564;2023-04-24T01:37:34;6.10;;;3.00;;
80117;SDS011;69424;48.770;-1.564;2023-04-24T01:40:06;5.10;;;2.60;;
80117;SDS011;69424;48.770;-1.564;2023-04-24T01:42:34;4.10;;;2.30;;
80117;SDS011;69424;48.770;-1.564;2023-04-24T01:45:03;6.70;;;2.80;;
80117;SDS011;69424;48.770;-1.564;2023-04-24T01:47:33;7.70;;;2.50;;
80117;SDS011;69424;48.770;-1.564;2023-04-24T01:50:01;11.80;;;2.30;;
80117;SDS011;69424;48.770;-1.564;2023-04-24T01:52:32;4.10;;;1.80;;
80117;SDS011;69424;48.770;-1.564;2023-04-24T01:55:01;9.40;;;1.80;;
80117;SDS011;69424;48.770;-1.564;2023-04-24T01:57:31;11.40;;;2.50;;
80117;SDS011;69424;48.770;-1.564;2023-04-24T02:00:00;3.80;;;2.10;;
80117;SDS011;69424;48.770;-1.564;2023-04-24T02:02:40;7.00;;;2.80;;
80117;SDS011;69424;48.770;-1.564;2023-04-24T02:05:11;4.40;;;1.80;;
80117;SDS011;69424;48.770;-1.564;2023-04-24T02:07:39;5.80;;;2.70;;
80117;SDS011;69424;48.770;-1.564;2023-04-24T02:10:09;3.70;;;2.20;;
80117;SDS011;69424;48.770;-1.564;2023-04-24T02:12:42;9.40;;;2.40;;
80117;SDS011;69424;48.770;-1.564;2023-04-24T02:15:10;3.00;;;1.70;;
80117;SDS011;69424;48.770;-1.564;2023-04-24T02:17:40;5.00;;;1.20;;
80117;SDS011;69424;48.770;-1.564;2023-04-24T02:20:08;8.20;;;2.00;;
80117;SDS011;69424;48.770;-1.564;2023-04-24T02:22:36;8.10;;;2.70;;
80117;SDS011;69424;48.770;-1.564;2023-04-24T02:25:04;9.10;;;2.60;;
80117;SDS011;69424;48.770;-1.564;2023-04-24T02:27:33;6.70;;;2.30;;
80117;SDS011;69424;48.770;-1.564;2023-04-24T02:30:01;8.70;;;2.50;;
80117;SDS011;69424;48.770;-1.564;2023-04-24T02:32:30;8.80;;;2.60;;
80117;SDS011;69424;48.770;-1.564;2023-04-24T02:34:58;5.10;;;2.00;;
80117;SDS011;69424;48.770;-1.564;2023-04-24T02:37:27;4.70;;;2.50;;
80117;SDS011;69424;48.770;-1.564;2023-04-24T02:39:55;7.30;;;1.90;;
80117;SDS011;69424;48.770;-1.564;2023-04-24T02:42:23;7.60;;;2.10;;
80117;SDS011;69424;48.770;-1.564;2023-04-24T02:44:51;6.30;;;2.40;;
80117;SDS011;69424;48.770;-1.564;2023-04-24T02:47:20;4.50;;;2.40;;
80117;SDS011;69424;48.770;-1.564;2023-04-24T02:49:49;3.70;;;2.20;;
80117;SDS011;69424;48.770;-1.564;2023-04-24T02:52:17;9.60;;;2.70;;
80117;SDS011;69424;48.770;-1.564;2023-04-24T02:54:45;3.90;;;2.50;;
80117;SDS011;69424;48.770;-1.564;2023-04-24T02:57:13;4.70;;;1.90;;
80117;SDS011;69424;48.770;-1.564;2023-04-24T02:59:42;6.60;;;2.20;;
80117;SDS011;69424;48.770;-1.564;2023-04-24T03:02:11;4.30;;;1.90;;
80117;SDS011;69424;48.770;-1.564;2023-04-24T03:04:39;5.70;;;2.20;;
80117;SDS011;69424;48.770;-1.564;2023-04-24T03:07:08;6.10;;;2.50;;
80117;SDS011;69424;48.770;-1.564;2023-04-24T03:09:37;6.10;;;2.90;;
80117;SDS011;69424;48.770;-1.564;2023-04-24T03:12:05;9.20;;;2.80;;
80117;SDS011;69424;48.770;-1.564;2023-04-24T03:14:34;7.50;;;2.60;;
80117;SDS011;69424;48.770;-1.564;2023-04-24T03:17:03;9.00;;;2.70;;
80117;SDS011;69424;48.770;-1.564;2023-04-24T03:19:31;7.00;;;2.50;;
80117;SDS011;69424;48.770;-1.564;2023-04-24T03:22:03;7.60;;;2.50;;
80117;SDS011;69424;48.770;-1.564;2023-04-24T03:24:32;6.80;;;2.20;;
80117;SDS011;69424;48.770;-1.564;2023-04-24T03:27:00;6.40;;;2.20;;
80117;SDS011;69424;48.770;-1.564;2023-04-24T03:29:43;7.40;;;3.50;;
80117;SDS011;69424;48.770;-1.564;2023-04-24T03:32:12;6.70;;;2.60;;
80117;SDS011;69424;48.770;-1.564;2023-04-24T03:34:40;8.20;;;3.20;;
80117;SDS011;69424;48.770;-1.564;2023-04-24T03:37:09;6.80;;;2.30;;
80117;SDS011;69424;48.770;-1.564;2023-04-24T03:39:40;8.80;;;2.70;;
80117;SDS011;69424;48.770;-1.564;2023-04-24T03:42:09;8.30;;;2.60;;
80117;SDS011;69424;48.770;-1.564;2023-04-24T03:44:45;11.40;;;2.50;;
80117;SDS011;69424;48.770;-1.564;2023-04-24T03:47:13;6.80;;;2.60;;
80117;SDS011;69424;48.770;-1.564;2023-04-24T03:49:42;8.50;;;3.10;;
80117;SDS011;69424;48.770;-1.564;2023-04-24T03:52:11;4.50;;;2.60;;
80117;SDS011;69424;48.770;-1.564;2023-04-24T03:54:39;7.20;;;3.00;;
80117;SDS011;69424;48.770;-1.564;2023-04-24T03:57:07;6.80;;;2.70;;
80117;SDS011;69424;48.770;-1.564;2023-04-24T03:59:36;6.10;;;2.90;;
80117;SDS011;69424;48.770;-1.564;2023-04-24T04:02:14;7.00;;;2.90;;
80117;SDS011;69424;48.770;-1.564;2023-04-24T04:04:43;7.50;;;2.90;;
80117;SDS011;69424;48.770;-1.564;2023-04-24T04:07:11;7.00;;;2.30;;
80117;SDS011;69424;48.770;-1.564;2023-04-24T04:09:40;8.40;;;2.90;;
80117;SDS011;69424;48.770;-1.564;2023-04-24T04:12:08;7.90;;;2.80;;
80117;SDS011;69424;48.770;-1.564;2023-04-24T04:14:38;8.00;;;3.10;;
80117;SDS011;69424;48.770;-1.564;2023-04-24T04:17:06;8.50;;;3.30;;
80117;SDS011;69424;48.770;-1.564;2023-04-24T04:19:34;8.30;;;3.00;;
80117;SDS011;69424;48.770;-1.564;2023-04-24T04:22:03;6.40;;;2.20;;
80117;SDS011;69424;48.770;-1.564;2023-04-24T04:24:39;5.50;;;2.00;;
80117;SDS011;69424;48.770;-1.564;2023-04-24T04:27:09;4.20;;;2.00;;
80117;SDS011;69424;48.770;-1.564;2023-04-24T04:29:44;5.40;;;2.10;;
80117;SDS011;69424;48.770;-1.564;2023-04-24T04:32:13;5.90;;;1.70;;
80117;SDS011;69424;48.770;-1.564;2023-04-24T04:34:41;4.90;;;2.30;;
80117;SDS011;69424;48.770;-1.564;2023-04-24T04:37:11;10.40;;;3.30;;
80117;SDS011;69424;48.770;-1.564;2023-04-24T04:39:43;8.10;;;2.50;;
80117;SDS011;69424;48.770;-1.564;2023-04-24T04:42:17;4.80;;;2.60;;
80117;SDS011;69424;48.770;-1.564;2023-04-24T04:44:47;6.10;;;2.40;;
80117;SDS011;69424;48.770;-1.564;2023-04-24T04:47:20;5.30;;;2.00;;
80117;SDS011;69424;48.770;-1.564;2023-04-24T04:49:53;6.70;;;2.10;;
80117;SDS011;69424;48.770;-1.564;2023-04-24T04:52:24;4.60;;;2.20;;
80117;SDS011;69424;48.770;-1.564;2023-04-24T04:55:00;7.40;;;2.00;;
80117;SDS011;69424;48.770;-1.564;2023-04-24T04:57:42;7.30;;;2.00;;
80117;SDS011;69424;48.770;-1.564;2023-04-24T05:00:11;6.80;;;2.60;;
80117;SDS011;69424;48.770;-1.564;2023-04-24T05:02:46;9.00;;;2.80;;
80117;SDS011;69424;48.770;-1.564;2023-04-24T05:05:14;6.50;;;2.60;;
80117;SDS011;69424;48.770;-1.564;2023-04-24T05:07:45;6.90;;;2.60;;
80117;SDS011;69424;48.770;-1.564;2023-04-24T05:10:13;6.00;;;2.40;;
80117;SDS011;69424;48.770;-1.564;2023-04-24T05:12:41;3.50;;;1.70;;
80117;SDS011;69424;48.770;-1.564;2023-04-24T05:15:12;7.00;;;2.40;;
80117;SDS011;69424;48.770;-1.564;2023-04-24T05:17:41;4.10;;;1.90;;
80117;SDS011;69424;48.770;-1.564;2023-04-24T05:20:10;4.80;;;1.70;;
80117;SDS011;69424;48.770;-1.564;2023-04-24T05:22:38;7.90;;;2.50;;
80117;SDS011;69424;48.770;-1.564;2023-04-24T05:25:07;7.60;;;2.00;;
80117;SDS011;69424;48.770;-1.564;2023-04-24T05:27:40;10.10;;;2.50;;
80117;SDS011;69424;48.770;-1.564;2023-04-24T05:30:14;7.10;;;2.20;;
80117;SDS011;69424;48.770;-1.564;2023-04-24T05:32:42;5.40;;;1.70;;
80117;SDS011;69424;48.770;-1.564;2023-04-24T05:35:10;6.10;;;1.60;;
80117;SDS011;69424;48.770;-1.564;2023-04-24T05:37:38;4.20;;;1.70;;
80117;SDS011;69424;48.770;-1.564;2023-04-24T05:40:07;5.70;;;1.60;;
80117;SDS011;69424;48.770;-1.564;2023-04-24T05:42:36;4.50;;;1.90;;
80117;SDS011;69424;48.770;-1.564;2023-04-24T05:45:04;3.70;;;1.40;;
80117;SDS011;69424;48.770;-1.564;2023-04-24T05:47:33;5.50;;;1.90;;
80117;SDS011;69424;48.770;-1.564;2023-04-24T05:50:01;4.30;;;2.20;;
80117;SDS011;69424;48.770;-1.564;2023-04-24T05:52:31;11.20;;;2.70;;
80117;SDS011;69424;48.770;-1.564;2023-04-24T05:55:01;6.70;;;1.90;;
80117;SDS011;69424;48.770;-1.564;2023-04-24T05:57:31;4.50;;;1.60;;
80117;SDS011;69424;48.770;-1.564;2023-04-24T06:00:03;8.30;;;1.90;;
80117;SDS011;69424;48.770;-1.564;2023-04-24T06:02:40;6.80;;;1.50;;
80117;SDS011;69424;48.770;-1.564;2023-04-24T06:05:09;4.70;;;1.70;;
80117;SDS011;69424;48.770;-1.564;2023-04-24T06:07:37;6.10;;;1.70;;
80117;SDS011;69424;48.770;-1.564;2023-04-24T06:10:06;5.70;;;1.80;;
80117;SDS011;69424;48.770;-1.564;2023-04-24T06:12:40;4.20;;;1.90;;
80117;SDS011;69424;48.770;-1.564;2023-04-24T06:15:13;10.60;;;2.00;;
80117;SDS011;69424;48.770;-1.564;2023-04-24T06:17:57;7.40;;;1.90;;
80117;SDS011;69424;48.770;-1.564;2023-04-24T06:20:26;3.50;;;1.70;;
80117;SDS011;69424;48.770;-1.564;2023-04-24T06:22:54;4.50;;;1.50;;
80117;SDS011;69424;48.770;-1.564;2023-04-24T06:25:24;6.00;;;1.80;;
80117;SDS011;69424;48.770;-1.564;2023-04-24T06:30:22;5.00;;;1.90;;
80117;SDS011;69424;48.770;-1.564;2023-04-24T06:32:51;7.20;;;2.00;;
80117;SDS011;69424;48.770;-1.564;2023-04-24T06:35:19;11.00;;;2.30;;
80117;SDS011;69424;48.770;-1.564;2023-04-24T06:37:47;2.10;;;1.40;;
80117;SDS011;69424;48.770;-1.564;2023-04-24T06:40:15;7.10;;;1.60;;
80117;SDS011;69424;48.770;-1.564;2023-04-24T06:42:46;4.40;;;1.30;;
80117;SDS011;69424;48.770;-1.564;2023-04-24T06:45:14;5.70;;;1.90;;
80117;SDS011;69424;48.770;-1.564;2023-04-24T06:47:42;7.20;;;1.40;;
80117;SDS011;69424;48.770;-1.564;2023-04-24T06:50:10;4.80;;;1.70;;
80117;SDS011;69424;48.770;-1.564;2023-04-24T06:52:40;4.90;;;1.60;;
80117;SDS011;69424;48.770;-1.564;2023-04-24T06:55:08;6.20;;;2.20;;
80117;SDS011;69424;48.770;-1.564;2023-04-24T06:57:37;7.50;;;1.70;;
80117;SDS011;69424;48.770;-1.564;2023-04-24T07:00:06;3.80;;;1.70;;
80117;SDS011;69424;48.770;-1.564;2023-04-24T07:02:37;7.30;;;1.90;;
80117;SDS011;69424;48.770;-1.564;2023-04-24T07:05:05;8.30;;;2.20;;
80117;SDS011;69424;48.770;-1.564;2023-04-24T07:07:34;7.80;;;1.80;;
80117;SDS011;69424;48.770;-1.564;2023-04-24T07:10:05;7.40;;;1.60;;
80117;SDS011;69424;48.770;-1.564;2023-04-24T07:12:34;8.20;;;1.60;;
80117;SDS011;69424;48.770;-1.564;2023-04-24T07:15:03;6.70;;;1.90;;
80117;SDS011;69424;48.770;-1.564;2023-04-24T07:17:33;4.70;;;1.80;;
80117;SDS011;69424;48.770;-1.564;2023-04-24T07:20:02;3.90;;;1.50;;
80117;SDS011;69424;48.770;-1.564;2023-04-24T07:22:31;4.60;;;1.50;;
80117;SDS011;69424;48.770;-1.564;2023-04-24T07:25:00;6.80;;;1.30;;
80117;SDS011;69424;48.770;-1.564;2023-04-24T07:27:29;7.60;;;1.50;;
80117;SDS011;69424;48.770;-1.564;2023-04-24T07:29:57;3.70;;;1.60;;
80117;SDS011;69424;48.770;-1.564;2023-04-24T07:32:25;5.20;;;1.60;;
80117;SDS011;69424;48.770;-1.564;2023-04-24T07:34:53;6.80;;;1.90;;
80117;SDS011;69424;48.770;-1.564;2023-04-24T07:37:21;6.00;;;1.40;;
80117;SDS011;69424;48.770;-1.564;2023-04-24T07:39:50;5.20;;;1.60;;
80117;SDS011;69424;48.770;-1.564;2023-04-24T07:42:18;6.20;;;1.40;;
80117;SDS011;69424;48.770;-1.564;2023-04-24T07:44:46;3.10;;;1.50;;
80117;SDS011;69424;48.770;-1.564;2023-04-24T07:47:15;4.50;;;1.40;;
80117;SDS011;69424;48.770;-1.564;2023-04-24T07:49:43;5.10;;;1.50;;
80117;SDS011;69424;48.770;-1.564;2023-04-24T07:52:12;4.80;;;1.50;;
80117;SDS011;69424;48.770;-1.564;2023-04-24T07:54:40;5.60;;;1.60;;
80117;SDS011;69424;48.770;-1.564;2023-04-24T07:57:08;4.30;;;1.60;;
80117;SDS011;69424;48.770;-1.564;2023-04-24T07:59:36;4.60;;;1.60;;
80117;SDS011;69424;48.770;-1.564;2023-04-24T08:02:04;6.00;;;1.50;;
80117;SDS011;69424;48.770;-1.564;2023-04-24T08:04:34;4.70;;;1.60;;
80117;SDS011;69424;48.770;-1.564;2023-04-24T08:07:02;4.90;;;1.70;;
80117;SDS011;69424;48.770;-1.564;2023-04-24T08:09:30;3.10;;;1.50;;
80117;SDS011;69424;48.770;-1.564;2023-04-24T08:11:58;8.20;;;1.40;;
80117;SDS011;69424;48.770;-1.564;2023-04-24T08:14:26;2.50;;;1.60;;
80117;SDS011;69424;48.770;-1.564;2023-04-24T08:16:54;8.40;;;1.50;;
80117;SDS011;69424;48.770;-1.564;2023-04-24T08:19:27;4.10;;;1.40;;
80117;SDS011;69424;48.770;-1.564;2023-04-24T08:21:56;3.10;;;1.30;;
80117;SDS011;69424;48.770;-1.564;2023-04-24T08:24:24;6.60;;;1.30;;
80117;SDS011;69424;48.770;-1.564;2023-04-24T08:26:52;3.30;;;1.70;;
80117;SDS011;69424;48.770;-1.564;2023-04-24T08:29:21;3.60;;;1.40;;
80117;SDS011;69424;48.770;-1.564;2023-04-24T08:31:49;5.10;;;1.50;;
80117;SDS011;69424;48.770;-1.564;2023-04-24T08:34:18;4.30;;;1.50;;
80117;SDS011;69424;48.770;-1.564;2023-04-24T08:36:46;6.30;;;1.50;;
80117;SDS011;69424;48.770;-1.564;2023-04-24T08:39:14;4.20;;;1.70;;
80117;SDS011;69424;48.770;-1.564;2023-04-24T08:41:44;5.90;;;2.10;;
80117;SDS011;69424;48.770;-1.564;2023-04-24T08:44:13;5.10;;;1.50;;
80117;SDS011;69424;48.770;-1.564;2023-04-24T08:46:43;4.40;;;1.50;;
80117;SDS011;69424;48.770;-1.564;2023-04-24T08:49:13;5.50;;;1.50;;
80117;SDS011;69424;48.770;-1.564;2023-04-24T08:51:44;4.60;;;2.00;;
80117;SDS011;69424;48.770;-1.564;2023-04-24T08:54:14;5.60;;;1.90;;
80117;SDS011;69424;48.770;-1.564;2023-04-24T08:56:43;5.40;;;1.60;;
80117;SDS011;69424;48.770;-1.564;2023-04-24T08:59:12;7.00;;;1.70;;
80117;SDS011;69424;48.770;-1.564;2023-04-24T09:01:41;4.80;;;2.00;;
80117;SDS011;69424;48.770;-1.564;2023-04-24T09:04:13;4.80;;;1.60;;
80117;SDS011;69424;48.770;-1.564;2023-04-24T09:06:44;4.60;;;1.60;;
80117;SDS011;69424;48.770;-1.564;2023-04-24T09:09:13;5.20;;;1.80;;
80117;SDS011;69424;48.770;-1.564;2023-04-24T09:11:41;3.70;;;2.00;;
80117;SDS011;69424;48.770;-1.564;2023-04-24T09:14:09;6.50;;;2.50;;
80117;SDS011;69424;48.770;-1.564;2023-04-24T09:16:38;4.80;;;2.50;;
80117;SDS011;69424;48.770;-1.564;2023-04-24T09:19:06;4.50;;;2.00;;
80117;SDS011;69424;48.770;-1.564;2023-04-24T09:21:35;4.10;;;1.90;;
80117;SDS011;69424;48.770;-1.564;2023-04-24T09:24:07;5.60;;;1.90;;
80117;SDS011;69424;48.770;-1.564;2023-04-24T09:26:41;5.00;;;1.70;;
80117;SDS011;69424;48.770;-1.564;2023-04-24T09:29:16;4.10;;;1.60;;
80117;SDS011;69424;48.770;-1.564;2023-04-24T09:31:45;3.80;;;1.80;;
80117;SDS011;69424;48.770;-1.564;2023-04-24T09:34:14;3.70;;;1.60;;
80117;SDS011;69424;48.770;-1.564;2023-04-24T09:36:42;4.80;;;1.90;;
80117;SDS011;69424;48.770;-1.564;2023-04-24T09:39:12;5.00;;;1.50;;
80117;SDS011;69424;48.770;-1.564;2023-04-24T09:41:53;3.20;;;1.70;;
80117;SDS011;69424;48.770;-1.564;2023-04-24T09:44:26;4.20;;;1.80;;
80117;SDS011;69424;48.770;-1.564;2023-04-24T09:46:56;2.60;;;1.60;;
80117;SDS011;69424;48.770;-1.564;2023-04-24T09:49:29;6.80;;;1.60;;
80117;SDS011;69424;48.770;-1.564;2023-04-24T09:52:05;3.90;;;2.20;;
80117;SDS011;69424;48.770;-1.564;2023-04-24T09:54:34;4.30;;;1.60;;
80117;SDS011;69424;48.770;-1.564;2023-04-24T09:57:04;3.30;;;1.60;;
80117;SDS011;69424;48.770;-1.564;2023-04-24T09:59:41;5.20;;;1.80;;
80117;SDS011;69424;48.770;-1.564;2023-04-24T10:02:18;3.00;;;1.70;;
80117;SDS011;69424;48.770;-1.564;2023-04-24T10:04:54;2.90;;;1.60;;
80117;SDS011;69424;48.770;-1.564;2023-04-24T10:07:28;5.70;;;2.00;;
80117;SDS011;69424;48.770;-1.564;2023-04-24T10:09:56;6.90;;;1.60;;
80117;SDS011;69424;48.770;-1.564;2023-04-24T10:12:25;5.20;;;2.20;;
80117;SDS011;69424;48.770;-1.564;2023-04-24T10:14:54;5.00;;;1.60;;
80117;SDS011;69424;48.770;-1.564;2023-04-24T10:17:23;3.90;;;1.70;;
80117;SDS011;69424;48.770;-1.564;2023-04-24T10:19:53;6.10;;;2.20;;
80117;SDS011;69424;48.770;-1.564;2023-04-24T10:22:23;5.40;;;1.60;;
80117;SDS011;69424;48.770;-1.564;2023-04-24T10:24:52;2.90;;;1.70;;
80117;SDS011;69424;48.770;-1.564;2023-04-24T10:27:20;3.90;;;1.90;;
80117;SDS011;69424;48.770;-1.564;2023-04-24T10:29:49;2.90;;;1.60;;
80117;SDS011;69424;48.770;-1.564;2023-04-24T10:32:20;5.80;;;1.80;;
80117;SDS011;69424;48.770;-1.564;2023-04-24T10:34:49;6.10;;;1.80;;
80117;SDS011;69424;48.770;-1.564;2023-04-24T10:37:17;3.70;;;1.50;;
80117;SDS011;69424;48.770;-1.564;2023-04-24T10:39:47;2.00;;;1.40;;
80117;SDS011;69424;48.770;-1.564;2023-04-24T10:42:16;5.50;;;2.20;;
80117;SDS011;69424;48.770;-1.564;2023-04-24T10:44:47;3.60;;;1.60;;
80117;SDS011;69424;48.770;-1.564;2023-04-24T10:47:16;4.60;;;1.80;;
80117;SDS011;69424;48.770;-1.564;2023-04-24T10:49:45;3.70;;;1.90;;
80117;SDS011;69424;48.770;-1.564;2023-04-24T10:52:13;4.70;;;2.20;;
80117;SDS011;69424;48.770;-1.564;2023-04-24T11:00:09;4.50;;;2.10;;
80117;SDS011;69424;48.770;-1.564;2023-04-24T11:02:39;5.10;;;2.40;;
80117;SDS011;69424;48.770;-1.564;2023-04-24T11:05:11;5.60;;;2.30;;
80117;SDS011;69424;48.770;-1.564;2023-04-24T11:10:45;5.40;;;2.20;;
80117;SDS011;69424;48.770;-1.564;2023-04-24T11:13:15;5.30;;;1.90;;
80117;SDS011;69424;48.770;-1.564;2023-04-24T11:15:45;3.70;;;1.90;;
80117;SDS011;69424;48.770;-1.564;2023-04-24T11:18:43;4.10;;;2.00;;
80117;SDS011;69424;48.770;-1.564;2023-04-24T11:21:18;4.30;;;2.00;;
80117;SDS011;69424;48.770;-1.564;2023-04-24T11:23:47;3.10;;;1.70;;
80117;SDS011;69424;48.770;-1.564;2023-04-24T11:26:19;7.20;;;2.20;;
80117;SDS011;69424;48.770;-1.564;2023-04-24T11:28:50;4.70;;;1.80;;
80117;SDS011;69424;48.770;-1.564;2023-04-24T11:31:35;5.10;;;2.30;;
80117;SDS011;69424;48.770;-1.564;2023-04-24T11:34:06;5.80;;;2.20;;
80117;SDS011;69424;48.770;-1.564;2023-04-24T11:36:40;9.30;;;3.20;;
80117;SDS011;69424;48.770;-1.564;2023-04-24T11:39:11;8.90;;;2.60;;
80117;SDS011;69424;48.770;-1.564;2023-04-24T11:41:40;4.30;;;1.90;;
80117;SDS011;69424;48.770;-1.564;2023-04-24T11:44:09;10.30;;;2.40;;
80117;SDS011;69424;48.770;-1.564;2023-04-24T11:46:38;5.90;;;2.00;;
80117;SDS011;69424;48.770;-1.564;2023-04-24T11:49:08;9.60;;;2.10;;
80117;SDS011;69424;48.770;-1.564;2023-04-24T11:51:36;5.40;;;1.80;;
80117;SDS011;69424;48.770;-1.564;2023-04-24T11:54:20;6.00;;;1.60;;
80117;SDS011;69424;48.770;-1.564;2023-04-24T11:56:48;8.90;;;2.10;;
80117;SDS011;69424;48.770;-1.564;2023-04-24T11:59:17;7.70;;;1.90;;
80117;SDS011;69424;48.770;-1.564;2023-04-24T12:01:45;6.50;;;2.00;;
80117;SDS011;69424;48.770;-1.564;2023-04-24T12:04:15;6.30;;;1.40;;
80117;SDS011;69424;48.770;-1.564;2023-04-24T12:06:58;5.00;;;2.20;;
80117;SDS011;69424;48.770;-1.564;2023-04-24T12:09:28;5.50;;;1.80;;
80117;SDS011;69424;48.770;-1.564;2023-04-24T12:11:56;5.80;;;1.80;;
80117;SDS011;69424;48.770;-1.564;2023-04-24T12:14:24;4.70;;;1.60;;
80117;SDS011;69424;48.770;-1.564;2023-04-24T12:16:52;9.90;;;2.70;;
80117;SDS011;69424;48.770;-1.564;2023-04-24T12:19:21;3.40;;;1.60;;
80117;SDS011;69424;48.770;-1.564;2023-04-24T12:22:00;7.70;;;2.20;;
80117;SDS011;69424;48.770;-1.564;2023-04-24T12:24:33;7.10;;;1.60;;
80117;SDS011;69424;48.770;-1.564;2023-04-24T12:27:01;6.40;;;1.80;;
80117;SDS011;69424;48.770;-1.564;2023-04-24T12:29:30;5.70;;;1.60;;
80117;SDS011;69424;48.770;-1.564;2023-04-24T12:31:58;2.90;;;1.50;;
80117;SDS011;69424;48.770;-1.564;2023-04-24T12:34:26;8.30;;;2.20;;
80117;SDS011;69424;48.770;-1.564;2023-04-24T12:36:54;9.60;;;1.90;;
80117;SDS011;69424;48.770;-1.564;2023-04-24T12:39:22;5.30;;;1.80;;
80117;SDS011;69424;48.770;-1.564;2023-04-24T12:41:55;5.60;;;2.20;;
80117;SDS011;69424;48.770;-1.564;2023-04-24T12:44:33;6.50;;;2.10;;
80117;SDS011;69424;48.770;-1.564;2023-04-24T12:47:03;6.20;;;1.90;;
80117;SDS011;69424;48.770;-1.564;2023-04-24T12:49:31;5.60;;;1.60;;
80117;SDS011;69424;48.770;-1.564;2023-04-24T12:51:59;6.20;;;1.70;;
80117;SDS011;69424;48.770;-1.564;2023-04-24T12:54:31;4.50;;;1.80;;
80117;SDS011;69424;48.770;-1.564;2023-04-24T12:57:00;10.60;;;2.50;;
80117;SDS011;69424;48.770;-1.564;2023-04-24T12:59:29;4.90;;;1.90;;
80117;SDS011;69424;48.770;-1.564;2023-04-24T13:01:57;9.80;;;2.20;;
80117;SDS011;69424;48.770;-1.564;2023-04-24T13:04:25;10.40;;;2.10;;
80117;SDS011;69424;48.770;-1.564;2023-04-24T13:06:53;6.70;;;2.00;;
80117;SDS011;69424;48.770;-1.564;2023-04-24T13:09:21;6.30;;;2.00;;
80117;SDS011;69424;48.770;-1.564;2023-04-24T13:11:49;7.10;;;2.10;;
80117;SDS011;69424;48.770;-1.564;2023-04-24T13:14:18;8.40;;;1.90;;
80117;SDS011;69424;48.770;-1.564;2023-04-24T13:16:46;6.90;;;1.60;;
80117;SDS011;69424;48.770;-1.564;2023-04-24T13:19:14;5.60;;;1.70;;
80117;SDS011;69424;48.770;-1.564;2023-04-24T13:21:43;8.70;;;1.80;;
80117;SDS011;69424;48.770;-1.564;2023-04-24T13:24:11;7.00;;;1.60;;
80117;SDS011;69424;48.770;-1.564;2023-04-24T13:26:40;6.50;;;1.60;;
80117;SDS011;69424;48.770;-1.564;2023-04-24T13:29:08;7.10;;;2.20;;
80117;SDS011;69424;48.770;-1.564;2023-04-24T13:31:37;8.50;;;2.00;;
80117;SDS011;69424;48.770;-1.564;2023-04-24T13:34:05;8.40;;;2.20;;
80117;SDS011;69424;48.770;-1.564;2023-04-24T13:36:33;5.30;;;1.80;;
80117;SDS011;69424;48.770;-1.564;2023-04-24T13:39:02;7.00;;;1.90;;
80117;SDS011;69424;48.770;-1.564;2023-04-24T13:41:32;4.60;;;1.40;;
80117;SDS011;69424;48.770;-1.564;2023-04-24T13:44:02;6.20;;;1.90;;
80117;SDS011;69424;48.770;-1.564;2023-04-24T13:46:31;8.20;;;2.00;;
80117;SDS011;69424;48.770;-1.564;2023-04-24T13:48:59;5.90;;;1.70;;
80117;SDS011;69424;48.770;-1.564;2023-04-24T13:51:27;4.00;;;1.50;;
80117;SDS011;69424;48.770;-1.564;2023-04-24T13:53:55;8.60;;;2.10;;
80117;SDS011;69424;48.770;-1.564;2023-04-24T13:56:23;6.40;;;1.60;;
80117;SDS011;69424;48.770;-1.564;2023-04-24T13:58:51;4.20;;;1.60;;
80117;SDS011;69424;48.770;-1.564;2023-04-24T14:01:22;4.90;;;1.20;;
80117;SDS011;69424;48.770;-1.564;2023-04-24T14:03:52;5.10;;;1.40;;
80117;SDS011;69424;48.770;-1.564;2023-04-24T14:06:21;8.20;;;2.40;;
80117;SDS011;69424;48.770;-1.564;2023-04-24T14:08:50;6.70;;;1.60;;
80117;SDS011;69424;48.770;-1.564;2023-04-24T14:11:19;4.60;;;2.00;;
80117;SDS011;69424;48.770;-1.564;2023-04-24T14:13:47;6.30;;;1.50;;
80117;SDS011;69424;48.770;-1.564;2023-04-24T14:16:16;8.20;;;1.90;;
80117;SDS011;69424;48.770;-1.564;2023-04-24T14:18:44;4.10;;;1.40;;
80117;SDS011;69424;48.770;-1.564;2023-04-24T14:21:12;4.80;;;1.30;;
80117;SDS011;69424;48.770;-1.564;2023-04-24T14:23:40;5.30;;;1.70;;
80117;SDS011;69424;48.770;-1.564;2023-04-24T14:26:09;4.30;;;1.50;;
80117;SDS011;69424;48.770;-1.564;2023-04-24T14:28:37;7.20;;;1.60;;
80117;SDS011;69424;48.770;-1.564;2023-04-24T14:31:05;6.00;;;2.20;;
80117;SDS011;69424;48.770;-1.564;2023-04-24T14:33:33;5.70;;;1.40;;
80117;SDS011;69424;48.770;-1.564;2023-04-24T14:36:01;4.10;;;1.40;;
80117;SDS011;69424;48.770;-1.564;2023-04-24T14:38:30;6.20;;;1.70;;
80117;SDS011;69424;48.770;-1.564;2023-04-24T14:40:59;7.80;;;1.70;;
80117;SDS011;69424;48.770;-1.564;2023-04-24T14:43:30;4.60;;;1.50;;
80117;SDS011;69424;48.770;-1.564;2023-04-24T14:45:58;7.30;;;1.70;;
80117;SDS011;69424;48.770;-1.564;2023-04-24T14:48:26;6.50;;;1.90;;
80117;SDS011;69424;48.770;-1.564;2023-04-24T14:50:54;7.00;;;1.90;;
80117;SDS011;69424;48.770;-1.564;2023-04-24T14:53:22;6.30;;;1.70;;
80117;SDS011;69424;48.770;-1.564;2023-04-24T14:55:50;7.40;;;1.90;;
80117;SDS011;69424;48.770;-1.564;2023-04-24T14:58:18;6.70;;;1.50;;